Terminal Aerodrome Forecast
Issued by NWS Austin/San Antonio, TX

Home | Current Version | Previous Version | Text Only | Print | Product List | Glossary On
Versions: 1 2 3 4 5 6 7 8 9 10 11 12 13 14 15 16 17 18
473
FTUS44 KEWX 022340
TAFDRT
TAF
KDRT 022340Z 0300/0324 11008KT 6SM BR VCSH OVC006
     FM030600 08007KT 3SM -SHRA BR OVC004
     FM031800 02006KT P6SM VCSH OVC008=

USA.gov is the U.S. government's official web portal to all federal, state and local government web resources and services.